Charlottesville, Indiana
Current Conditions -  °F | °C
As of 12:15 PM on Sunday 23 Nov 2014 (Local Time) from KMQJ Reporting Station
Overcast Overcast  
Wind Chill: 55°   Ceiling: 2900
Heat Index: 55°   Visibility: 7mi
Dew Point: 39°   Wind: 12mph
Humidity: 54%   Direction: 170°S
Pressure: 29.77"   Gusts: NA
Location:  39.79°N, 85.61°W
Report Text: KMQJ 231715Z AUTO 17010KT 7SM SCT015 BKN029 OVC041 13/04 A2977 RMK AO1
Loading
Personal Weather Stations






























Interactive Weather Map New forecast layout! Learn more

10-Day Weather Forecast

Advertisements
Track Severe Weather on mobile